createdAt,value
2023-04-07T00:01:36.848Z,95.88
2023-04-07T00:04:03.514Z,96.51
2023-04-07T00:06:30.287Z,97.00
2023-04-07T00:08:56.736Z,94.80
2023-04-07T00:11:23.105Z,94.15
2023-04-07T00:13:49.425Z,92.91
2023-04-07T00:16:15.987Z,96.09
2023-04-07T00:18:42.331Z,95.85
2023-04-07T00:21:08.736Z,94.67
2023-04-07T00:23:35.040Z,93.26
2023-04-07T00:26:01.445Z,93.00
2023-04-07T00:28:27.775Z,95.42
2023-04-07T00:30:54.118Z,92.27
2023-04-07T00:33:20.448Z,92.58
2023-04-07T00:35:46.803Z,92.72
2023-04-07T00:38:13.263Z,92.14
2023-04-07T00:40:39.693Z,91.43
2023-04-07T00:43:06.098Z,92.60
2023-04-07T00:45:32.578Z,93.65
2023-04-07T00:47:59.178Z,95.54
2023-04-07T00:50:25.883Z,98.08
2023-04-07T00:52:53.807Z,99.84
2023-04-07T00:55:20.399Z,100.00
2023-04-07T00:57:46.836Z,99.44
2023-04-07T01:00:13.467Z,98.25
2023-04-07T01:02:58.385Z,98.55
2023-04-07T01:05:33.337Z,99.33
2023-04-07T01:07:59.838Z,97.50
2023-04-07T01:10:44.151Z,99.07
2023-04-07T01:13:22.282Z,99.01
2023-04-07T01:15:50.244Z,97.42
2023-04-07T01:18:20.314Z,99.78
2023-04-07T01:20:49.253Z,99.74
2023-04-07T01:23:22.346Z,100.00
2023-04-07T01:26:22.370Z,100.00
2023-04-07T01:28:48.721Z,100.00
2023-04-07T01:31:16.300Z,100.00
2023-04-07T01:33:44.480Z,99.79
2023-04-07T01:36:11.616Z,100.00
2023-04-07T01:38:38.828Z,100.00
2023-04-07T01:41:06.189Z,100.00
2023-04-07T01:43:33.243Z,99.37
2023-04-07T01:46:01.340Z,100.00
2023-04-07T01:48:27.731Z,99.46
2023-04-07T01:50:55.184Z,100.00
2023-04-07T01:53:23.119Z,100.00
2023-04-07T01:55:49.815Z,100.00
2023-04-07T01:58:16.241Z,100.00
2023-04-07T02:00:43.715Z,98.75
2023-04-07T02:03:23.306Z,100.00
2023-04-07T02:05:52.236Z,100.00
2023-04-07T02:08:19.940Z,100.00
2023-04-07T02:10:47.612Z,100.00
2023-04-07T02:13:16.052Z,100.00
2023-04-07T02:15:45.312Z,100.00
2023-04-07T02:18:13.110Z,100.00
2023-04-07T02:20:39.986Z,100.00
2023-04-07T02:23:07.848Z,100.00
2023-04-07T02:25:34.299Z,100.00
2023-04-07T02:28:01.413Z,100.00
2023-04-07T02:30:29.242Z,100.00
2023-04-07T02:32:55.669Z,100.00
2023-04-07T02:35:22.264Z,100.00
2023-04-07T02:37:49.126Z,100.00
2023-04-07T02:40:15.823Z,100.00
2023-04-07T02:42:42.498Z,100.00
2023-04-07T02:45:09.731Z,100.00
2023-04-07T02:47:36.819Z,100.00
2023-04-07T02:50:03.439Z,100.00
2023-04-07T02:52:29.792Z,100.00
2023-04-07T02:54:56.250Z,100.00
2023-04-07T02:57:22.620Z,100.00
2023-04-07T02:59:48.964Z,100.00
2023-04-07T03:02:15.541Z,100.00
2023-04-07T03:04:41.999Z,100.00
2023-04-07T03:07:08.324Z,100.00
2023-04-07T03:09:34.941Z,100.00
2023-04-07T03:12:02.200Z,100.00
2023-04-07T03:14:28.547Z,100.00
2023-04-07T03:16:54.917Z,100.00
2023-04-07T03:19:21.345Z,100.00
2023-04-07T03:21:47.711Z,100.00
2023-04-07T03:24:14.027Z,100.00
2023-04-07T03:26:40.628Z,100.00
2023-04-07T03:29:07.101Z,100.00
2023-04-07T03:31:33.446Z,100.00
2023-04-07T03:33:59.786Z,100.00
2023-04-07T03:36:28.054Z,100.00
2023-04-07T03:38:54.504Z,100.00
2023-04-07T03:41:21.222Z,100.00
2023-04-07T03:43:47.589Z,100.00
2023-04-07T03:46:14.067Z,100.00
2023-04-07T03:48:40.849Z,100.00
2023-04-07T03:51:08.221Z,100.00
2023-04-07T03:53:34.692Z,100.00
2023-04-07T03:56:01.380Z,100.00
2023-04-07T03:58:27.741Z,100.00
2023-04-07T04:00:54.210Z,100.00
2023-04-07T04:03:20.891Z,100.00
2023-04-07T04:05:47.357Z,100.00
2023-04-07T04:08:13.727Z,100.00
2023-04-07T04:10:45.493Z,100.00
2023-04-07T04:13:11.843Z,100.00
2023-04-07T04:15:38.302Z,100.00
2023-04-07T04:18:04.687Z,100.00
2023-04-07T04:20:31.079Z,100.00
2023-04-07T04:22:58.444Z,100.00
2023-04-07T04:25:24.800Z,100.00
2023-04-07T04:27:51.518Z,100.00
2023-04-07T04:30:17.861Z,100.00
2023-04-07T04:32:44.680Z,100.00
2023-04-07T04:35:11.242Z,100.00
2023-04-07T04:37:37.616Z,100.00
2023-04-07T04:40:04.210Z,100.00
2023-04-07T04:42:31.561Z,100.00
2023-04-07T04:44:58.102Z,100.00
2023-04-07T04:47:24.597Z,100.00
2023-04-07T04:49:51.121Z,100.00
2023-04-07T04:52:17.537Z,100.00
2023-04-07T04:54:43.885Z,100.00
2023-04-07T04:57:17.394Z,100.00
2023-04-07T04:59:43.725Z,100.00
2023-04-07T05:02:10.193Z,100.00
2023-04-07T05:04:37.772Z,100.00
2023-04-07T05:07:05.175Z,100.00
2023-04-07T05:09:31.661Z,100.00
2023-04-07T05:11:58.383Z,100.00
2023-04-07T05:14:24.724Z,100.00
2023-04-07T05:16:51.459Z,100.00
2023-04-07T05:19:17.805Z,98.91
2023-04-07T05:21:45.500Z,93.77
2023-04-07T05:24:12.060Z,90.70
2023-04-07T05:26:38.487Z,86.73
2023-04-07T05:29:04.885Z,82.82
2023-04-07T05:31:31.239Z,84.07
2023-04-07T05:33:58.113Z,81.90
2023-04-07T05:36:24.552Z,77.02
2023-04-07T05:38:51.588Z,73.45
2023-04-07T05:41:17.938Z,70.74
2023-04-07T05:43:44.377Z,70.70
2023-04-07T05:46:10.937Z,67.66
2023-04-07T05:48:37.426Z,63.07
2023-04-07T05:51:03.867Z,61.56
2023-04-07T05:53:30.469Z,60.31
2023-04-07T05:55:56.775Z,59.00
2023-04-07T05:58:23.179Z,59.14
2023-04-07T06:00:50.073Z,56.88
2023-04-07T06:03:16.733Z,55.99
2023-04-07T06:05:45.730Z,55.38
2023-04-07T06:08:12.113Z,55.56
2023-04-07T06:10:39.653Z,54.59
2023-04-07T06:13:06.070Z,53.77
2023-04-07T06:15:32.446Z,53.87
2023-04-07T06:17:59.403Z,54.59
2023-04-07T06:20:27.744Z,52.81
2023-04-07T06:22:54.953Z,52.53
2023-04-07T06:25:21.305Z,53.36
2023-04-07T06:27:47.694Z,52.07
2023-04-07T06:30:14.263Z,50.23
2023-04-07T06:32:41.442Z,50.24
2023-04-07T06:35:08.043Z,49.75
2023-04-07T06:37:34.454Z,49.67
2023-04-07T06:40:00.862Z,49.61
2023-04-07T06:42:27.198Z,48.85
2023-04-07T06:44:53.533Z,48.98
2023-04-07T06:47:20.031Z,48.63
2023-04-07T06:49:46.395Z,48.04
2023-04-07T06:52:12.868Z,47.59
2023-04-07T06:54:39.251Z,47.88
2023-04-07T06:57:11.703Z,47.89
2023-04-07T06:59:38.514Z,48.02
2023-04-07T07:02:05.016Z,47.36
2023-04-07T07:04:31.871Z,46.72
2023-04-07T07:06:58.263Z,46.38
2023-04-07T07:09:24.640Z,46.06
2023-04-07T07:11:52.046Z,45.38
2023-04-07T07:14:18.394Z,46.21
2023-04-07T07:16:44.754Z,45.55
2023-04-07T07:19:11.155Z,45.88
2023-04-07T07:21:37.587Z,45.78
2023-04-07T07:24:03.972Z,45.59
2023-04-07T07:26:30.361Z,45.69
2023-04-07T07:28:56.787Z,45.21
2023-04-07T07:31:23.922Z,44.62
2023-04-07T07:33:51.599Z,45.79
2023-04-07T07:36:17.953Z,45.55
2023-04-07T07:38:44.338Z,45.68
2023-04-07T07:41:10.834Z,46.08
2023-04-07T07:43:37.527Z,45.50
2023-04-07T07:46:04.111Z,45.97
2023-04-07T07:48:30.466Z,45.03
2023-04-07T07:50:57.074Z,44.98
2023-04-07T07:53:23.508Z,44.09
2023-04-07T07:55:49.832Z,45.13
2023-04-07T07:58:16.141Z,44.00
2023-04-07T08:00:42.689Z,43.27
2023-04-07T08:03:09.282Z,41.33
2023-04-07T08:05:35.954Z,42.18
2023-04-07T08:08:03.026Z,42.36
2023-04-07T08:10:29.433Z,43.36
2023-04-07T08:12:55.848Z,41.60
2023-04-07T08:15:22.307Z,40.60
2023-04-07T08:17:48.687Z,41.10
2023-04-07T08:20:15.109Z,40.17
2023-04-07T08:22:41.451Z,40.00
2023-04-07T08:25:08.669Z,41.57
2023-04-07T08:27:35.106Z,40.84
2023-04-07T08:30:03.194Z,39.95
2023-04-07T08:32:40.683Z,39.34
2023-04-07T08:35:07.845Z,39.08
2023-04-07T08:37:34.500Z,37.92
2023-04-07T08:40:01.691Z,38.37
2023-04-07T08:42:29.723Z,39.53
2023-04-07T08:44:57.585Z,38.41
2023-04-07T08:47:25.907Z,39.78
2023-04-07T08:49:53.106Z,41.01
2023-04-07T08:52:22.895Z,39.25
2023-04-07T08:54:49.685Z,38.85
2023-04-07T08:57:16.627Z,39.06
2023-04-07T08:59:45.327Z,36.85
2023-04-07T09:02:12.689Z,37.23
2023-04-07T09:04:39.113Z,38.29
2023-04-07T09:07:05.441Z,38.40
2023-04-07T09:09:31.895Z,38.80
2023-04-07T09:11:58.819Z,39.13
2023-04-07T09:14:25.286Z,39.75
2023-04-07T09:16:51.695Z,38.68
2023-04-07T09:19:18.125Z,40.11
2023-04-07T09:21:48.946Z,40.24
2023-04-07T09:24:41.454Z,38.40
2023-04-07T09:27:11.366Z,38.43
2023-04-07T09:29:37.810Z,39.43
2023-04-07T09:32:04.506Z,39.90
2023-04-07T09:34:35.089Z,38.87
2023-04-07T09:37:01.500Z,37.29
2023-04-07T09:39:28.184Z,38.84
2023-04-07T09:41:54.565Z,35.63
2023-04-07T09:44:24.379Z,35.73
2023-04-07T09:46:56.284Z,36.40
2023-04-07T09:49:24.136Z,34.34
2023-04-07T09:51:54.562Z,32.77
2023-04-07T09:54:36.471Z,33.00
2023-04-07T09:57:04.035Z,32.95
2023-04-07T09:59:31.294Z,34.12
2023-04-07T10:01:58.336Z,32.58
2023-04-07T10:04:25.014Z,31.77
2023-04-07T10:06:52.785Z,33.45
2023-04-07T10:09:19.216Z,32.46
2023-04-07T10:11:46.078Z,30.54
2023-04-07T10:14:13.082Z,30.61
2023-04-07T10:16:39.930Z,32.51
2023-04-07T10:19:07.155Z,31.13
2023-04-07T10:21:39.259Z,29.42
2023-04-07T10:24:09.322Z,30.12
2023-04-07T10:26:37.215Z,29.08
2023-04-07T10:29:06.605Z,29.94
2023-04-07T10:31:33.553Z,29.41
2023-04-07T10:34:01.344Z,28.71
2023-04-07T10:36:29.135Z,30.14
2023-04-07T10:39:07.534Z,29.77
2023-04-07T10:41:34.996Z,28.77
2023-04-07T10:44:02.321Z,29.08
2023-04-07T10:46:52.149Z,29.86
2023-04-07T10:49:19.062Z,30.02
2023-04-07T10:52:05.571Z,29.49
2023-04-07T10:54:31.957Z,29.77
2023-04-07T10:57:12.946Z,29.86
2023-04-07T10:59:40.735Z,31.97
2023-04-07T11:02:17.488Z,32.11
2023-04-07T11:04:45.460Z,32.34
2023-04-07T11:07:13.064Z,32.51
2023-04-07T11:09:40.414Z,31.07
2023-04-07T11:12:07.046Z,29.77
2023-04-07T11:14:33.713Z,30.02
2023-04-07T11:17:03.386Z,32.24
2023-04-07T11:19:30.344Z,31.49
2023-04-07T11:22:29.821Z,30.25
2023-04-07T11:24:56.472Z,32.10
2023-04-07T11:27:23.029Z,30.08
2023-04-07T11:29:50.274Z,31.01
2023-04-07T11:32:24.907Z,30.46
2023-04-07T11:34:52.412Z,29.51
2023-04-07T11:37:19.646Z,29.20
2023-04-07T11:39:51.569Z,30.03
2023-04-07T11:42:31.146Z,30.24
2023-04-07T11:44:57.492Z,30.04
2023-04-07T11:47:33.484Z,29.77
2023-04-07T11:50:01.053Z,31.17
2023-04-07T11:52:27.401Z,31.39
2023-04-07T11:54:53.759Z,29.84
2023-04-07T11:57:27.391Z,32.04
2023-04-07T12:00:09.947Z,32.15
2023-04-07T12:02:38.003Z,31.67
2023-04-07T12:05:05.045Z,30.78
2023-04-07T12:07:31.553Z,31.73
2023-04-07T12:09:57.889Z,33.68
2023-04-07T12:12:33.125Z,32.23
2023-04-07T12:14:59.488Z,31.32
2023-04-07T12:17:26.771Z,30.88
2023-04-07T12:19:53.613Z,28.82
2023-04-07T12:22:20.219Z,32.24
2023-04-07T12:24:46.513Z,32.90
2023-04-07T12:27:12.907Z,31.11
2023-04-07T12:29:39.296Z,29.71
2023-04-07T12:32:05.680Z,29.60
2023-04-07T12:34:32.074Z,30.47
2023-04-07T12:36:58.546Z,34.59
2023-04-07T12:39:24.856Z,30.48
2023-04-07T12:41:53.326Z,30.63
2023-04-07T12:44:19.763Z,30.27
2023-04-07T12:46:46.185Z,32.14
2023-04-07T12:49:12.505Z,29.16
2023-04-07T12:51:40.101Z,29.01
2023-04-07T12:54:06.632Z,29.29
2023-04-07T12:56:33.200Z,29.26
2023-04-07T12:58:59.504Z,29.67
2023-04-07T13:01:25.999Z,30.15
2023-04-07T13:03:52.653Z,28.65
2023-04-07T13:06:19.460Z,32.47
2023-04-07T13:08:45.854Z,32.08
2023-04-07T13:11:12.182Z,31.26
2023-04-07T13:13:38.539Z,30.52
2023-04-07T13:16:05.036Z,29.87
2023-04-07T13:18:31.370Z,28.89
2023-04-07T13:21:33.754Z,29.19
2023-04-07T13:23:44.220Z,28.39
2023-04-07T13:26:10.744Z,29.69
2023-04-07T13:28:37.387Z,31.04
2023-04-07T13:31:03.888Z,28.35
2023-04-07T13:33:30.392Z,28.73
2023-04-07T13:35:56.909Z,27.94
2023-04-07T13:38:23.312Z,28.66
2023-04-07T13:40:49.833Z,29.78
2023-04-07T13:43:18.524Z,30.09
2023-04-07T13:45:44.929Z,30.32
2023-04-07T13:48:11.407Z,33.21
2023-04-07T13:50:38.514Z,30.28
2023-04-07T13:53:04.873Z,30.55
2023-04-07T13:55:31.240Z,31.17
2023-04-07T13:57:57.583Z,30.04
2023-04-07T14:00:23.999Z,28.91
2023-04-07T14:02:50.422Z,30.10
2023-04-07T14:05:16.840Z,30.71
2023-04-07T14:07:43.163Z,31.02
2023-04-07T14:10:10.769Z,31.10
2023-04-07T14:12:37.212Z,29.18
2023-04-07T14:15:04.241Z,28.90
2023-04-07T14:17:30.882Z,28.90
2023-04-07T14:19:57.306Z,30.77
2023-04-07T14:22:23.687Z,29.39
2023-04-07T14:24:50.040Z,30.60
2023-04-07T14:27:20.879Z,28.25
2023-04-07T14:29:50.146Z,29.02
2023-04-07T14:32:16.984Z,28.55
2023-04-07T14:34:43.439Z,28.37
2023-04-07T14:37:09.848Z,29.73
2023-04-07T14:39:37.277Z,29.91
2023-04-07T14:42:04.605Z,29.77
2023-04-07T14:44:31.648Z,28.13
2023-04-07T14:46:58.053Z,28.40
2023-04-07T14:49:25.921Z,30.78
2023-04-07T14:51:52.305Z,28.51
2023-04-07T14:54:18.992Z,29.18
2023-04-07T14:56:45.494Z,29.67
2023-04-07T14:59:11.905Z,28.39
2023-04-07T15:01:39.904Z,28.60
2023-04-07T15:04:06.415Z,28.09
2023-04-07T15:06:32.788Z,29.01
2023-04-07T15:08:59.123Z,29.09
2023-04-07T15:11:26.205Z,28.77
2023-04-07T15:13:52.572Z,30.72
2023-04-07T15:16:19.111Z,29.30
2023-04-07T15:18:47.297Z,29.31
2023-04-07T15:21:14.764Z,29.56
2023-04-07T15:23:41.862Z,29.01
2023-04-07T15:26:08.574Z,29.74
2023-04-07T15:28:34.957Z,30.45
2023-04-07T15:31:01.522Z,29.62
2023-04-07T15:33:28.964Z,29.64
2023-04-07T15:35:55.939Z,34.24
2023-04-07T15:38:22.306Z,32.29
2023-04-07T15:40:48.685Z,31.55
2023-04-07T15:43:15.311Z,31.53
2023-04-07T15:45:43.153Z,29.70
2023-04-07T15:48:10.211Z,30.46
2023-04-07T15:50:36.653Z,30.11
2023-04-07T15:53:06.340Z,30.18
2023-04-07T15:55:33.400Z,30.56
2023-04-07T15:57:59.986Z,30.99
2023-04-07T16:00:30.420Z,29.30
2023-04-07T16:02:56.913Z,28.28
2023-04-07T16:05:23.437Z,28.74
2023-04-07T16:07:49.795Z,27.58
2023-04-07T16:10:19.706Z,28.20
2023-04-07T16:12:46.639Z,28.11
2023-04-07T16:15:13.145Z,28.01
2023-04-07T16:17:40.529Z,27.12
2023-04-07T16:20:13.608Z,28.50
2023-04-07T16:22:40.947Z,27.54
2023-04-07T16:25:07.743Z,27.21
2023-04-07T16:27:34.092Z,28.06
2023-04-07T16:30:00.464Z,28.80
2023-04-07T16:32:26.881Z,28.50
2023-04-07T16:34:53.224Z,29.26
2023-04-07T16:37:19.548Z,30.05
2023-04-07T16:39:46.129Z,29.71
2023-04-07T16:42:12.459Z,30.17
2023-04-07T16:44:38.784Z,31.02
2023-04-07T16:47:05.109Z,30.21
2023-04-07T16:49:31.500Z,31.22
2023-04-07T16:51:57.851Z,31.88
2023-04-07T16:54:24.167Z,31.80
2023-04-07T16:56:51.498Z,33.08
2023-04-07T16:59:17.967Z,34.73
2023-04-07T17:01:44.771Z,35.88
2023-04-07T17:04:12.295Z,35.22
2023-04-07T17:06:38.721Z,35.82
2023-04-07T17:09:05.164Z,36.36
2023-04-07T17:11:31.538Z,35.69
2023-04-07T17:13:57.922Z,36.49
2023-04-07T17:16:24.409Z,37.84
2023-04-07T17:18:51.700Z,36.32
2023-04-07T17:21:18.182Z,36.69
2023-04-07T17:23:44.504Z,37.86
2023-04-07T17:26:11.074Z,37.34
2023-04-07T17:28:37.406Z,38.05
2023-04-07T17:31:04.823Z,37.52
2023-04-07T17:33:31.267Z,37.79
2023-04-07T17:35:57.717Z,38.49
2023-04-07T17:38:24.072Z,38.35
2023-04-07T17:40:56.209Z,38.89
2023-04-07T17:43:22.715Z,39.83
2023-04-07T17:45:49.058Z,39.93
2023-04-07T17:48:15.704Z,40.14
2023-04-07T17:50:42.177Z,39.77
2023-04-07T17:53:08.560Z,39.52
2023-04-07T17:55:34.923Z,40.72
2023-04-07T17:58:02.002Z,42.72
2023-04-07T18:00:29.451Z,43.02
2023-04-07T18:02:56.110Z,41.95
2023-04-07T18:05:22.642Z,41.68
2023-04-07T18:07:49.311Z,42.34
2023-04-07T18:10:16.583Z,44.50
2023-04-07T18:12:43.025Z,44.96
2023-04-07T18:15:09.667Z,47.60
2023-04-07T18:17:36.223Z,47.25
2023-04-07T18:20:03.529Z,46.47
2023-04-07T18:22:30.372Z,46.16
2023-04-07T18:24:56.905Z,45.44
2023-04-07T18:27:25.218Z,45.69
2023-04-07T18:29:51.915Z,47.28
2023-04-07T18:32:18.248Z,47.26
2023-04-07T18:34:47.021Z,48.06
2023-04-07T18:37:13.431Z,48.18
2023-04-07T18:39:39.848Z,49.43
2023-04-07T18:42:06.430Z,49.13
2023-04-07T18:44:32.776Z,48.70
2023-04-07T18:46:59.375Z,48.33
2023-04-07T18:49:27.846Z,47.71
2023-04-07T18:51:55.254Z,47.61
2023-04-07T18:54:21.575Z,48.91
2023-04-07T18:56:48.322Z,47.71
2023-04-07T18:59:14.652Z,53.69
2023-04-07T19:01:42.498Z,54.09
2023-04-07T19:04:10.681Z,50.82
2023-04-07T19:06:37.381Z,50.27
2023-04-07T19:09:04.164Z,49.69
2023-04-07T19:11:30.745Z,51.68
2023-04-07T19:13:57.168Z,50.75
2023-04-07T19:16:26.530Z,50.21
2023-04-07T19:18:54.140Z,49.89
2023-04-07T19:21:20.720Z,51.07
2023-04-07T19:23:47.673Z,53.82
2023-04-07T19:26:14.393Z,55.10
2023-04-07T19:28:41.366Z,56.54
2023-04-07T19:31:10.985Z,54.04
2023-04-07T19:33:38.082Z,55.69
2023-04-07T19:36:04.715Z,51.37
2023-04-07T19:38:31.488Z,52.03
2023-04-07T19:40:58.024Z,52.83
2023-04-07T19:43:24.414Z,52.01
2023-04-07T19:45:51.844Z,53.81
2023-04-07T19:48:19.102Z,54.51
2023-04-07T19:50:49.779Z,53.63
2023-04-07T19:53:16.644Z,52.18
2023-04-07T19:55:43.446Z,53.01
2023-04-07T19:58:09.788Z,51.99
2023-04-07T20:00:36.729Z,52.78
2023-04-07T20:03:06.471Z,52.63
2023-04-07T20:05:34.003Z,53.82
2023-04-07T20:08:03.630Z,53.96
2023-04-07T20:10:29.958Z,54.82
2023-04-07T20:12:56.443Z,55.60
2023-04-07T20:15:24.609Z,56.09
2023-04-07T20:17:51.540Z,56.07
2023-04-07T20:20:19.147Z,55.66
2023-04-07T20:22:45.764Z,54.42
2023-04-07T20:25:14.254Z,53.93
2023-04-07T20:27:40.638Z,54.09
2023-04-07T20:30:09.235Z,54.15
2023-04-07T20:32:35.626Z,53.96
2023-04-07T20:35:03.247Z,53.51
2023-04-07T20:37:29.866Z,53.62
2023-04-07T20:39:56.259Z,53.03
2023-04-07T20:42:22.621Z,54.27
2023-04-07T20:44:49.010Z,53.50
2023-04-07T20:47:15.570Z,53.34
2023-04-07T20:49:43.581Z,54.11
2023-04-07T20:52:09.955Z,54.24
2023-04-07T20:54:36.374Z,53.55
2023-04-07T20:57:02.829Z,56.44
2023-04-07T20:59:30.136Z,54.09
2023-04-07T21:01:56.676Z,53.80
2023-04-07T21:04:24.474Z,54.73
2023-04-07T21:06:51.037Z,54.81
2023-04-07T21:09:17.816Z,54.11
2023-04-07T21:11:44.157Z,53.87
2023-04-07T21:14:10.531Z,55.19
2023-04-07T21:16:37.084Z,54.63
2023-04-07T21:19:03.653Z,54.08
2023-04-07T21:21:30.065Z,56.03
2023-04-07T21:23:56.536Z,54.59
2023-04-07T21:26:22.860Z,54.33
2023-04-07T21:28:50.845Z,55.32
2023-04-07T21:31:21.666Z,55.60
2023-04-07T21:33:48.282Z,57.62
2023-04-07T21:36:14.600Z,60.55
2023-04-07T21:38:41.807Z,57.01
2023-04-07T21:41:08.210Z,57.11
2023-04-07T21:43:37.577Z,57.84
2023-04-07T21:46:03.988Z,58.88
2023-04-07T21:48:30.364Z,58.41
2023-04-07T21:50:57.200Z,58.75
2023-04-07T21:53:23.527Z,58.23
2023-04-07T21:55:49.868Z,58.97
2023-04-07T21:58:16.211Z,59.76
2023-04-07T22:00:42.601Z,61.36
2023-04-07T22:03:09.991Z,61.25
2023-04-07T22:05:36.573Z,61.18
2023-04-07T22:08:03.233Z,60.44
2023-04-07T22:10:29.707Z,60.09
2023-04-07T22:12:56.050Z,64.00
2023-04-07T22:15:22.617Z,65.19
2023-04-07T22:17:49.050Z,68.07
2023-04-07T22:20:16.508Z,67.86
2023-04-07T22:22:43.944Z,66.45
2023-04-07T22:25:10.366Z,70.50
2023-04-07T22:27:36.687Z,72.11
2023-04-07T22:30:03.618Z,72.38
2023-04-07T22:32:30.083Z,73.96
2023-04-07T22:34:57.164Z,74.07
2023-04-07T22:37:23.543Z,74.96
2023-04-07T22:39:49.881Z,72.67
2023-04-07T22:42:16.260Z,71.50
2023-04-07T22:44:42.625Z,75.35
2023-04-07T22:47:09.165Z,72.30
2023-04-07T22:49:35.718Z,73.66
2023-04-07T22:52:02.523Z,78.40
2023-04-07T22:54:28.856Z,76.32
2023-04-07T22:56:55.942Z,76.52
2023-04-07T22:59:22.290Z,77.22
2023-04-07T23:01:48.901Z,81.86
2023-04-07T23:04:15.451Z,79.03
2023-04-07T23:06:43.515Z,81.90
2023-04-07T23:09:10.328Z,82.54
2023-04-07T23:11:36.710Z,82.52
2023-04-07T23:14:05.991Z,83.25
2023-04-07T23:16:33.248Z,85.71
2023-04-07T23:18:59.756Z,82.27
2023-04-07T23:21:26.332Z,85.93
2023-04-07T23:23:52.739Z,87.25
2023-04-07T23:26:19.100Z,86.65
2023-04-07T23:28:46.266Z,85.48
2023-04-07T23:31:12.586Z,82.79
2023-04-07T23:33:38.925Z,84.39
2023-04-07T23:36:05.568Z,85.32
2023-04-07T23:38:32.357Z,83.32
2023-04-07T23:40:58.696Z,84.84
2023-04-07T23:43:25.030Z,85.66
2023-04-07T23:45:51.379Z,82.73
2023-04-07T23:48:17.831Z,80.08
2023-04-07T23:50:44.172Z,82.39
2023-04-07T23:53:10.507Z,88.62
2023-04-07T23:55:36.933Z,86.50
2023-04-07T23:58:03.328Z,87.54
